KHIO/HIO METAR and TAF weather

Enter ICAO airport designator
Station Type Date Time Source
KHIO METAR 2022/07/03 12:53 UTC NOAA

KHIO 031253Z 00000KT 10SM OVC035 14/09 A2996 RMK AO2 SLP141 T01390094


Station Type Date Time Source
KHIO Decoded METAR 2022/07/03 12:53 UTC NOAA

PORTLAND-HILLSBORO AIRPORT, OR, United States (KHIO) 45-33N 122-57W 68M
Jul 03, 2022 - 08:53 AM EDT / 2022.07.03 1253 UTC
Wind: Calm:0
Visibility: 10 mile(s):0
Sky conditions: overcast
Temperature: 57.0 F (13.9 C)
Dew Point: 48.9 F (9.4 C)
Relative Humidity: 74%
Pressure (altimeter): 29.96 in. Hg (1014 hPa)
ob: KHIO 031253Z 00000KT 10SM OVC035 14/09 A2996 RMK AO2 SLP141 T01390094
cycle: 13

Station Type Date Time Source
KHIO TAF 2022/07/03 14:48 UTC NOAA

TAF
AMD KHIO 031346Z 0314/0412 32004KT P6SM SCT025 OVC035
TEMPO 0315/0319 OVC025
FM032000 32004KT P6SM SCT025 OVC035
FM032200 32004KT P6SM BKN035
FM040900 33004KT P6SM BKN025 OVC035

Example: see airport list